Time;durP1;ratioP1;P1;durP2;ratioP2;P2;SDS_P1;SDS_P2;PMS_P1;PMS_P2;Temp;Humidity;BMP_temperature;BMP_pressure;BME280_temperature;BME280_humidity;BME280_pressure;Samples;Min_cycle;Max_cycle;Signal;HPM_P1;HPM_P2
2022/04/10 00:00:43;;;;;;;7.68;2.58;;;4.00;99.90;;;;;;5098776;28;20210;-84
2022/04/10 00:03:12;;;;;;;8.23;2.40;;;4.00;99.90;;;;;;5100773;28;20218;-83
2022/04/10 00:05:38;;;;;;;4.88;3.72;;;4.00;99.90;;;;;;5101932;28;20201;-83
2022/04/10 00:08:05;;;;;;;6.10;3.10;;;4.00;99.90;;;;;;5103134;28;20201;-83
2022/04/10 00:10:32;;;;;;;4.95;2.40;;;4.00;99.90;;;;;;5100961;28;20201;-83
2022/04/10 00:12:59;;;;;;;4.90;2.65;;;4.00;99.90;;;;;;5098289;28;20704;-83
2022/04/10 00:15:25;;;;;;;3.00;2.80;;;3.90;99.90;;;;;;5098547;28;20316;-83
2022/04/10 00:17:52;;;;;;;4.55;2.50;;;3.90;99.90;;;;;;5097690;28;20259;-82
2022/04/10 00:20:20;;;;;;;3.42;2.78;;;3.90;99.90;;;;;;5097110;28;20269;-83
2022/04/10 00:22:48;;;;;;;4.00;3.55;;;3.90;99.90;;;;;;5097280;28;20221;-83
2022/04/10 00:25:17;;;;;;;10.25;3.28;;;3.90;99.90;;;;;;5097530;28;20625;-83
2022/04/10 00:27:44;;;;;;;5.40;2.60;;;3.90;99.90;;;;;;5102017;28;20235;-81
2022/04/10 00:30:12;;;;;;;5.80;2.70;;;3.90;99.90;;;;;;5116857;28;20185;-81
2022/04/10 00:32:39;;;;;;;5.60;3.33;;;3.90;99.90;;;;;;5116810;28;20225;-81
2022/04/10 00:35:08;;;;;;;3.38;3.08;;;3.80;99.90;;;;;;5109486;28;20198;-82
2022/04/10 00:37:36;;;;;;;3.40;2.67;;;3.70;99.90;;;;;;5100847;28;20210;-83
2022/04/10 00:40:04;;;;;;;7.18;2.90;;;3.70;99.90;;;;;;5103521;28;20695;-82
2022/04/10 00:42:31;;;;;;;3.85;2.95;;;3.70;99.90;;;;;;5101536;28;20229;-83
2022/04/10 00:44:58;;;;;;;4.05;3.20;;;3.80;99.90;;;;;;5103885;28;20249;-82
2022/04/10 00:47:25;;;;;;;5.00;3.75;;;3.80;99.90;;;;;;5105245;28;20205;-83
2022/04/10 00:49:51;;;;;;;4.10;3.40;;;3.80;99.90;;;;;;5100084;28;20237;-82
2022/04/10 00:52:19;;;;;;;7.80;4.97;;;3.70;99.90;;;;;;5100705;28;20731;-82
2022/04/10 00:54:47;;;;;;;9.68;4.78;;;3.70;99.90;;;;;;5101144;28;20205;-83
2022/04/10 00:57:14;;;;;;;7.22;5.03;;;3.60;99.90;;;;;;5098407;28;20248;-83
2022/04/10 00:59:41;;;;;;;9.55;5.72;;;3.70;99.90;;;;;;5097606;28;20249;-84
2022/04/10 01:02:07;;;;;;;9.75;5.10;;;3.70;99.90;;;;;;5100502;28;20233;-83
2022/04/10 01:04:35;;;;;;;6.57;4.28;;;3.70;99.90;;;;;;5110425;28;20205;-83
2022/04/10 01:07:01;;;;;;;9.05;3.90;;;3.70;99.90;;;;;;5109627;28;20206;-83
2022/04/10 01:09:28;;;;;;;6.50;3.83;;;3.70;99.90;;;;;;5105973;28;20205;-83
2022/04/10 01:11:56;;;;;;;4.30;3.50;;;3.70;99.90;;;;;;5099005;28;20217;-83
2022/04/10 01:14:23;;;;;;;4.80;3.90;;;3.60;99.90;;;;;;5097170;28;20205;-83
2022/04/10 01:16:50;;;;;;;6.03;4.30;;;3.70;99.90;;;;;;5097628;28;20293;-83
2022/04/10 01:19:18;;;;;;;5.60;4.07;;;3.50;99.90;;;;;;5097044;28;20313;-83
2022/04/10 01:21:46;;;;;;;6.28;5.30;;;3.50;99.90;;;;;;5096590;28;20249;-83
2022/04/10 01:24:15;;;;;;;5.00;4.50;;;3.60;99.90;;;;;;5096977;28;20197;-84
2022/04/10 01:26:42;;;;;;;4.18;3.78;;;3.50;99.90;;;;;;5096128;28;20202;-84
2022/04/10 01:29:10;;;;;;;5.53;3.75;;;3.50;99.90;;;;;;5096779;28;20285;-82
2022/04/10 01:31:38;;;;;;;4.63;4.13;;;3.40;99.90;;;;;;5099254;28;20221;-82
2022/04/10 01:34:06;;;;;;;5.05;4.35;;;3.40;99.90;;;;;;5098232;28;20206;-83
2022/04/10 01:36:35;;;;;;;4.50;4.03;;;3.40;99.90;;;;;;5099169;28;20201;-82
2022/04/10 01:39:03;;;;;;;5.20;4.80;;;3.40;99.90;;;;;;5096244;28;20217;-82
2022/04/10 01:41:34;;;;;;;5.53;5.03;;;3.30;99.90;;;;;;5096224;28;20280;-85
2022/04/10 01:44:01;;;;;;;5.93;4.90;;;3.60;99.90;;;;;;5095945;28;20218;-82
2022/04/10 01:46:29;;;;;;;6.55;4.82;;;3.50;99.90;;;;;;5098725;28;20206;-83
2022/04/10 01:48:56;;;;;;;7.45;5.15;;;3.50;99.90;;;;;;5100126;28;20202;-84
2022/04/10 01:51:23;;;;;;;5.82;4.50;;;3.60;99.90;;;;;;5100213;28;20224;-82
2022/04/10 01:53:51;;;;;;;7.15;4.70;;;3.40;99.90;;;;;;5102138;28;20665;-83
2022/04/10 01:56:17;;;;;;;5.90;4.53;;;3.40;99.90;;;;;;5099970;28;20688;-84
2022/04/10 01:58:47;;;;;;;6.10;5.00;;;3.40;99.90;;;;;;5101323;28;20225;-84
2022/04/10 02:01:15;;;;;;;7.93;4.43;;;3.30;99.90;;;;;;5104031;28;20262;-82
2022/04/10 02:03:42;;;;;;;4.88;4.38;;;3.40;99.90;;;;;;5103274;28;20672;-82
2022/04/10 02:06:11;;;;;;;6.63;5.50;;;3.30;99.90;;;;;;5100080;28;20570;-83
2022/04/10 02:08:38;;;;;;;4.55;4.15;;;3.30;99.90;;;;;;5100347;28;20681;-82
2022/04/10 02:11:10;;;;;;;5.43;4.53;;;3.40;99.90;;;;;;5099898;28;20206;-83
2022/04/10 02:13:36;;;;;;;4.45;3.47;;;3.40;99.90;;;;;;5099626;28;20225;-83
2022/04/10 02:16:05;;;;;;;10.20;4.45;;;3.40;99.90;;;;;;5100012;28;20290;-83
2022/04/10 02:18:31;;;;;;;9.77;5.60;;;3.40;99.90;;;;;;5109140;28;20209;-82
2022/04/10 02:20:58;;;;;;;12.60;4.75;;;3.30;99.90;;;;;;5110028;28;20231;-83
2022/04/10 02:23:25;;;;;;;6.72;4.28;;;3.30;99.90;;;;;;5105354;28;20225;-83
2022/04/10 02:25:52;;;;;;;7.60;4.05;;;3.30;99.90;;;;;;5099438;28;20326;-82
2022/04/10 02:28:18;;;;;;;5.97;4.38;;;3.30;99.90;;;;;;5100034;28;20206;-83
2022/04/10 02:30:45;;;;;;;6.40;3.72;;;3.20;99.90;;;;;;5099706;28;20209;-83
2022/04/10 02:33:13;;;;;;;5.72;3.40;;;3.20;99.90;;;;;;5113538;28;20213;-82
2022/04/10 02:35:40;;;;;;;8.48;4.43;;;3.20;99.90;;;;;;5110181;28;20208;-82
2022/04/10 02:38:07;;;;;;;5.57;3.65;;;3.20;99.90;;;;;;5118907;28;20197;-82
2022/04/10 02:40:33;;;;;;;5.05;3.50;;;3.30;99.90;;;;;;5118803;28;20236;-82
2022/04/10 02:43:00;;;;;;;7.85;5.10;;;3.40;99.90;;;;;;5110416;28;20226;-83
2022/04/10 02:45:27;;;;;;;11.68;4.38;;;3.40;99.90;;;;;;5099936;28;20233;-83
2022/04/10 02:47:53;;;;;;;7.40;4.57;;;3.40;99.90;;;;;;5101794;28;20293;-82
2022/04/10 02:50:21;;;;;;;8.82;4.30;;;3.40;99.90;;;;;;5105524;28;20221;-82
2022/04/10 02:52:50;;;;;;;6.18;4.78;;;3.40;99.90;;;;;;5102248;28;20229;-83
2022/04/10 02:55:16;;;;;;;6.57;4.22;;;3.40;99.90;;;;;;5101719;28;20255;-83
2022/04/10 02:57:43;;;;;;;13.40;4.60;;;3.40;99.90;;;;;;5104666;28;20216;-82
2022/04/10 03:00:10;;;;;;;7.65;3.85;;;3.40;99.90;;;;;;5104355;28;20232;-83
2022/04/10 03:02:39;;;;;;;11.65;5.60;;;3.40;99.90;;;;;;5101369;28;20225;-83
2022/04/10 03:05:07;;;;;;;8.10;4.18;;;3.40;99.90;;;;;;5100013;28;20645;-83
2022/04/10 03:07:35;;;;;;;5.18;3.85;;;3.50;99.90;;;;;;5099523;28;20202;-83
2022/04/10 03:10:01;;;;;;;8.30;4.40;;;3.50;99.90;;;;;;5099749;28;20737;-83
2022/04/10 03:12:28;;;;;;;6.40;4.20;;;3.50;99.90;;;;;;5106444;28;20221;-82
2022/04/10 03:14:55;;;;;;;7.10;4.65;;;3.50;99.90;;;;;;5111254;28;20205;-82
2022/04/10 03:17:21;;;;;;;8.48;4.43;;;3.60;99.90;;;;;;5112209;28;20234;-82
2022/04/10 03:19:48;;;;;;;7.63;4.57;;;3.60;99.90;;;;;;5112280;28;20221;-82
2022/04/10 03:22:14;;;;;;;6.13;4.07;;;3.80;99.90;;;;;;5111703;28;20220;-82
2022/04/10 03:24:42;;;;;;;10.30;4.20;;;3.60;99.90;;;;;;5106864;28;20566;-82
2022/04/10 03:27:09;;;;;;;7.63;4.53;;;3.70;99.90;;;;;;5099561;28;20237;-83
2022/04/10 03:29:35;;;;;;;10.35;3.40;;;3.60;99.90;;;;;;5099875;28;20216;-83
2022/04/10 03:32:02;;;;;;;5.90;4.00;;;3.60;99.90;;;;;;5106170;28;20696;-82
2022/04/10 03:34:29;;;;;;;4.22;3.22;;;3.60;99.90;;;;;;5103396;28;20197;-82
2022/04/10 03:36:55;;;;;;;18.05;4.50;;;3.60;99.90;;;;;;5106580;28;20202;-82
2022/04/10 03:39:22;;;;;;;6.95;4.15;;;3.50;99.90;;;;;;5107031;28;20719;-82
2022/04/10 03:41:50;;;;;;;8.77;4.00;;;3.60;99.90;;;;;;5106837;28;20229;-83
2022/04/10 03:44:16;;;;;;;4.10;3.10;;;3.50;99.90;;;;;;5104730;28;20656;-83
2022/04/10 03:46:43;;;;;;;13.02;5.03;;;3.60;99.90;;;;;;5102941;28;20205;-82
2022/04/10 03:49:09;;;;;;;4.95;4.30;;;3.60;99.90;;;;;;5099750;28;20198;-83
2022/04/10 03:51:36;;;;;;;7.97;4.05;;;3.50;99.90;;;;;;5107576;28;20232;-82
2022/04/10 03:54:03;;;;;;;6.03;5.28;;;3.60;99.90;;;;;;5116222;28;20189;-82
2022/04/10 03:56:29;;;;;;;7.00;4.00;;;3.60;99.90;;;;;;5114240;28;20231;-83
2022/04/10 03:58:57;;;;;;;7.68;4.03;;;3.60;99.90;;;;;;5114922;28;20202;-82
2022/04/10 04:01:24;;;;;;;5.82;3.75;;;3.90;99.90;;;;;;5115222;28;20223;-82
2022/04/10 04:03:51;;;;;;;4.82;3.65;;;3.70;99.90;;;;;;5114188;28;20213;-82
2022/04/10 04:06:17;;;;;;;9.40;5.25;;;3.80;99.90;;;;;;5111822;28;20462;-81
2022/04/10 04:08:44;;;;;;;8.85;4.50;;;3.80;99.90;;;;;;5100841;28;20436;-82
2022/04/10 04:11:10;;;;;;;11.80;4.00;;;3.70;99.90;;;;;;5098693;28;20223;-82
2022/04/10 04:13:38;;;;;;;10.73;6.32;;;3.70;99.90;;;;;;5096574;28;20257;-83
2022/04/10 04:16:06;;;;;;;11.45;5.30;;;3.80;99.90;;;;;;5096578;28;20287;-83
2022/04/10 04:18:34;;;;;;;11.75;5.70;;;3.70;99.90;;;;;;5105895;28;20205;-83
2022/04/10 04:21:00;;;;;;;10.05;5.20;;;3.70;99.90;;;;;;5108828;28;20233;-83
2022/04/10 04:23:27;;;;;;;6.75;4.40;;;3.80;99.90;;;;;;5101481;28;20233;-83
2022/04/10 04:25:53;;;;;;;8.68;4.60;;;3.70;99.90;;;;;;5098039;28;20205;-83
2022/04/10 04:28:21;;;;;;;3.90;3.38;;;3.50;99.90;;;;;;5098672;28;20424;-83
2022/04/10 04:30:48;;;;;;;6.63;4.07;;;3.80;99.90;;;;;;5098743;28;20205;-83
2022/04/10 04:33:17;;;;;;;16.70;4.68;;;3.80;99.90;;;;;;5099129;28;20229;-83
2022/04/10 04:35:43;;;;;;;8.98;4.07;;;3.60;99.90;;;;;;5099006;28;20921;-83
2022/04/10 04:38:10;;;;;;;12.93;3.85;;;3.80;97.20;;;;;;5104224;28;20668;-83
2022/04/10 04:40:37;;;;;;;8.57;3.22;;;3.80;99.90;;;;;;5097878;28;20257;-84
2022/04/10 04:43:03;;;;;;;8.57;4.20;;;3.80;55.30;;;;;;5103525;28;20279;-81
2022/04/10 04:45:30;;;;;;;6.88;4.32;;;3.80;98.20;;;;;;5106925;28;20202;-83
2022/04/10 04:47:57;;;;;;;7.57;4.05;;;3.80;99.90;;;;;;5101743;28;20258;-84
2022/04/10 04:50:25;;;;;;;12.60;4.00;;;3.80;97.30;;;;;;5097302;28;20198;-83
2022/04/10 04:52:51;;;;;;;10.93;4.13;;;3.80;58.30;;;;;;5098592;28;20229;-83
2022/04/10 04:55:18;;;;;;;11.32;3.53;;;3.80;15.30;;;;;;5100392;28;20528;-83
2022/04/10 04:57:45;;;;;;;14.48;3.88;;;3.80;17.00;;;;;;5098613;28;20206;-83
2022/04/10 05:00:12;;;;;;;10.30;4.60;;;3.70;7.80;;;;;;5097274;28;20247;-83
2022/04/10 05:02:39;;;;;;;5.97;3.03;;;3.70;21.60;;;;;;5096951;28;20704;-83
2022/04/10 05:05:07;;;;;;;4.97;3.20;;;3.90;96.70;;;;;;5096743;28;20205;-84
2022/04/10 05:07:35;;;;;;;7.55;4.47;;;3.70;54.20;;;;;;5097378;28;20209;-83
2022/04/10 05:10:02;;;;;;;9.85;4.50;;;3.50;95.30;;;;;;5098708;28;20236;-83
2022/04/10 05:12:32;;;;;;;5.68;4.20;;;3.60;96.40;;;;;;5098284;28;20263;-83
2022/04/10 05:14:59;;;;;;;6.22;4.07;;;3.60;99.90;;;;;;5097612;28;20190;-83
2022/04/10 05:17:26;;;;;;;9.38;3.47;;;3.70;96.60;;;;;;5095873;28;20447;-82
2022/04/10 05:19:53;;;;;;;8.18;3.97;;;3.60;92.50;;;;;;5098607;28;20218;-83
2022/04/10 05:22:20;;;;;;;7.68;3.60;;;3.70;71.60;;;;;;5101977;28;20222;-83
2022/04/10 05:24:47;;;;;;;5.78;3.42;;;3.80;72.40;;;;;;5102499;28;20206;-83
2022/04/10 05:27:14;;;;;;;14.55;4.65;;;3.80;48.50;;;;;;5120509;28;20185;-80
2022/04/10 05:29:43;;;;;;;7.15;3.35;;;3.70;35.40;;;;;;5120085;28;20296;-83
2022/04/10 05:32:11;;;;;;;5.45;3.45;;;3.80;90.10;;;;;;5117121;28;20240;-82
2022/04/10 05:34:37;;;;;;;9.23;3.75;;;4.20;42.30;;;;;;5105410;28;20201;-82
2022/04/10 05:37:04;;;;;;;7.43;4.15;;;4.00;1.00;;;;;;5101544;28;20205;-82
2022/04/10 05:39:31;;;;;;;3.65;3.30;;;4.10;1.00;;;;;;5101743;28;20210;-82
2022/04/10 05:41:59;;;;;;;8.70;4.25;;;4.10;1.00;;;;;;5100595;28;20234;-82
2022/04/10 05:44:26;;;;;;;7.82;3.42;;;4.10;1.00;;;;;;5099823;28;20197;-83
2022/04/10 05:46:52;;;;;;;4.00;2.90;;;4.10;1.00;;;;;;5102964;28;20224;-83
2022/04/10 05:49:19;;;;;;;19.13;5.40;;;4.10;1.00;;;;;;5100487;28;20254;-83
2022/04/10 05:54:19;;;;;;;8.63;4.38;;;4.20;1.00;;;;;;5076634;28;20218;-84
2022/04/10 05:56:46;;;;;;;14.63;4.82;;;4.10;1.00;;;;;;5077403;28;20207;-84
2022/04/10 05:59:14;;;;;;;9.48;3.65;;;4.10;1.00;;;;;;5077227;28;20214;-85
2022/04/10 06:01:41;;;;;;;8.35;4.00;;;4.20;1.00;;;;;;5077543;28;20226;-83
2022/04/10 06:04:07;;;;;;;6.00;3.10;;;4.30;1.00;;;;;;5056557;28;20548;-84
2022/04/10 06:06:34;;;;;;;9.60;4.00;;;4.30;1.00;;;;;;5056932;28;20196;-83
2022/04/10 06:09:00;;;;;;;9.10;3.85;;;4.50;1.00;;;;;;5056944;28;20211;-84
2022/04/10 06:11:27;;;;;;;11.82;4.32;;;4.60;1.00;;;;;;5058928;28;20200;-84
2022/04/10 06:13:54;;;;;;;12.82;2.95;;;4.60;1.00;;;;;;5059127;28;20254;-84
2022/04/10 06:16:22;;;;;;;7.72;3.50;;;4.60;1.00;;;;;;5057252;28;20207;-83
2022/04/10 06:18:49;;;;;;;7.93;3.30;;;4.60;1.00;;;;;;5055447;28;20207;-84
2022/04/10 06:21:15;;;;;;;7.60;3.40;;;4.50;1.00;;;;;;5056619;28;20234;-84
2022/04/10 06:23:42;;;;;;;10.05;4.10;;;4.70;1.00;;;;;;5056347;28;20424;-84
2022/04/10 06:26:08;;;;;;;7.70;3.67;;;4.70;1.00;;;;;;5055835;28;20238;-85
2022/04/10 06:28:35;;;;;;;8.25;3.80;;;4.80;1.00;;;;;;5055376;28;20208;-84
2022/04/10 06:31:02;;;;;;;8.80;3.28;;;4.80;99.90;;;;;;5054947;28;20647;-84
2022/04/10 06:33:30;;;;;;;4.70;3.00;;;4.70;1.00;;;;;;5055914;28;20220;-84
2022/04/10 06:35:56;;;;;;;5.32;3.00;;;4.70;1.00;;;;;;5055023;28;20206;-84
2022/04/10 06:38:23;;;;;;;3.45;2.83;;;4.40;99.90;;;;;;5055001;28;20208;-84
2022/04/10 06:40:51;;;;;;;10.30;3.58;;;4.80;99.90;;;;;;5054363;28;20228;-84
2022/04/10 06:43:19;;;;;;;14.95;3.97;;;4.90;99.90;;;;;;5054778;28;20268;-84
2022/04/10 06:45:46;;;;;;;9.88;4.10;;;5.00;99.90;;;;;;5054469;28;20567;-85
2022/04/10 06:48:13;;;;;;;4.63;3.05;;;5.00;99.90;;;;;;5054106;28;20211;-85
2022/04/10 06:50:41;;;;;;;3.75;3.30;;;5.10;1.00;;;;;;5054443;28;20204;-85
2022/04/10 06:53:08;;;;;;;12.73;3.45;;;5.20;1.00;;;;;;5054905;28;20231;-85
2022/04/10 06:55:34;;;;;;;8.68;3.25;;;5.20;1.00;;;;;;5054723;28;20610;-85
2022/04/10 06:58:01;;;;;;;8.13;3.67;;;5.20;50.40;;;;;;5053798;28;20681;-85
2022/04/10 07:00:27;;;;;;;5.80;3.00;;;5.40;1.00;;;;;;5054461;28;20220;-85
2022/04/10 07:02:54;;;;;;;15.25;3.42;;;5.50;1.00;;;;;;5053625;28;20228;-85
2022/04/10 07:05:21;;;;;;;8.27;3.72;;;6.60;99.90;;;;;;5054006;28;20197;-83
2022/04/10 07:07:49;;;;;;;6.35;3.78;;;5.40;32.50;;;;;;5059632;28;20210;-83
2022/04/10 07:10:16;;;;;;;7.00;3.67;;;5.40;99.90;;;;;;5058356;28;20196;-84
2022/04/10 07:12:42;;;;;;;8.00;3.00;;;5.30;54.90;;;;;;5054106;28;20228;-84
2022/04/10 07:15:09;;;;;;;9.00;3.40;;;5.40;27.90;;;;;;5052636;28;20659;-85
2022/04/10 07:17:36;;;;;;;5.97;3.20;;;5.30;99.90;;;;;;5052756;28;20211;-85
2022/04/10 07:20:02;;;;;;;10.75;3.97;;;5.40;96.60;;;;;;5054505;28;20207;-85
2022/04/10 07:25:14;;;;;;;4.70;2.53;;;5.80;99.90;;;;;;5055929;28;20195;-84
2022/04/10 07:27:41;;;;;;;8.05;3.58;;;5.70;1.00;;;;;;5055109;28;20693;-84
2022/04/10 07:30:08;;;;;;;4.68;3.63;;;5.20;99.90;;;;;;5054884;28;20204;-85
2022/04/10 07:32:36;;;;;;;14.00;4.45;;;5.50;99.90;;;;;;5054580;28;20224;-85
2022/04/10 07:35:03;;;;;;;8.85;4.07;;;5.50;99.90;;;;;;5055036;28;20212;-84
2022/04/10 07:37:30;;;;;;;9.77;4.07;;;5.60;14.10;;;;;;5055435;28;20196;-84
2022/04/10 07:39:56;;;;;;;8.40;3.15;;;5.70;99.90;;;;;;5054565;28;20208;-84
2022/04/10 07:42:24;;;;;;;7.70;3.50;;;5.80;1.00;;;;;;5052992;28;20224;-84
2022/04/10 07:44:54;;;;;;;8.27;5.45;;;5.80;1.00;;;;;;5053436;28;20208;-84
2022/04/10 07:47:26;;;;;;;7.57;3.35;;;5.80;1.00;;;;;;5055818;28;20261;-85
2022/04/10 07:49:54;;;;;;;12.43;3.72;;;5.90;99.90;;;;;;5058443;28;20250;-85
2022/04/10 07:52:20;;;;;;;7.65;2.70;;;5.90;1.00;;;;;;5057594;28;20267;-85
2022/04/10 07:54:47;;;;;;;6.28;3.33;;;5.70;99.90;;;;;;5053601;28;20697;-85
2022/04/10 07:57:14;;;;;;;7.53;3.20;;;5.90;99.90;;;;;;5050053;28;20635;-85
2022/04/10 07:59:42;;;;;;;7.82;3.42;;;5.90;99.90;;;;;;5046823;28;20208;-85
2022/04/10 08:02:09;;;;;;;5.60;3.08;;;6.00;99.90;;;;;;5047090;28;20228;-85
2022/04/10 08:04:35;;;;;;;7.07;4.00;;;6.30;99.90;;;;;;5047425;28;20208;-84
2022/04/10 08:07:02;;;;;;;7.47;3.92;;;6.40;99.90;;;;;;5047810;28;20207;-84
2022/04/10 08:09:29;;;;;;;9.57;3.42;;;6.20;99.90;;;;;;5049196;28;20204;-85
2022/04/10 08:11:56;;;;;;;5.55;4.00;;;5.90;1.00;;;;;;5051727;28;20204;-85
2022/04/10 08:14:22;;;;;;;8.48;3.33;;;6.00;99.90;;;;;;5052206;28;20213;-85
2022/04/10 08:16:50;;;;;;;6.22;3.50;;;5.70;1.00;;;;;;5052486;28;20228;-84
2022/04/10 08:19:17;;;;;;;6.80;3.00;;;5.80;1.00;;;;;;5053204;28;20204;-84
2022/04/10 08:21:44;;;;;;;14.18;5.05;;;5.70;1.00;;;;;;5051044;28;20365;-84
2022/04/10 08:24:10;;;;;;;6.00;3.55;;;5.80;99.90;;;;;;5045241;28;20634;-85
2022/04/10 08:26:37;;;;;;;5.82;2.70;;;5.80;1.00;;;;;;5042586;28;20205;-85
2022/04/10 08:29:04;;;;;;;8.10;3.05;;;6.10;99.90;;;;;;5047450;28;20679;-84
2022/04/10 08:31:30;;;;;;;12.15;3.60;;;6.30;99.90;;;;;;5049341;28;20216;-83
2022/04/10 08:33:58;;;;;;;9.80;2.70;;;6.00;1.00;;;;;;5049846;28;20217;-84
2022/04/10 08:36:25;;;;;;;7.05;3.88;;;6.50;99.90;;;;;;5051247;28;20215;-85
2022/04/10 08:38:51;;;;;;;6.15;4.60;;;6.40;1.00;;;;;;5050572;28;20206;-85
2022/04/10 08:41:21;;;;;;;8.45;3.20;;;7.00;1.00;;;;;;5050499;28;20220;-84
2022/04/10 08:43:49;;;;;;;5.90;3.75;;;6.30;1.00;;;;;;5052005;28;20231;-85
2022/04/10 08:46:19;;;;;;;6.68;3.33;;;6.60;99.90;;;;;;5053118;28;20203;-83
2022/04/10 08:48:49;;;;;;;6.88;3.30;;;;;;;;;;5052381;28;20189;-84
2022/04/10 08:51:17;;;;;;;9.38;3.90;;;6.80;99.90;;;;;;5052254;28;20189;-83
2022/04/10 08:53:47;;;;;;;6.23;3.13;;;7.10;1.00;;;;;;5052854;28;20244;-84
2022/04/10 08:56:15;;;;;;;9.75;3.10;;;7.20;1.00;;;;;;5056631;28;20467;-83
2022/04/10 08:58:42;;;;;;;8.87;4.50;;;7.60;99.90;;;;;;5056689;28;20207;-84
2022/04/10 09:01:11;;;;;;;7.17;3.63;;;7.80;1.00;;;;;;5056368;28;20505;-85
2022/04/10 09:03:38;;;;;;;5.00;2.27;;;7.40;99.90;;;;;;5055321;28;20529;-85
2022/04/10 09:06:06;;;;;;;7.83;3.00;;;7.60;99.90;;;;;;5055083;28;20445;-85
2022/04/10 09:08:35;;;;;;;8.37;3.20;;;7.50;99.90;;;;;;5055568;28;20483;-85
2022/04/10 09:11:03;;;;;;;11.57;3.60;;;7.10;1.00;;;;;;5055994;28;20441;-84
2022/04/10 09:13:33;;;;;;;10.10;4.53;;;7.30;99.90;;;;;;5056307;28;20438;-83
2022/04/10 09:16:08;;;;;;;8.10;3.58;;;7.20;1.00;;;;;;5056760;28;20265;-84
2022/04/10 09:18:54;;;;;;;9.60;3.25;;;6.90;99.90;;;;;;5060472;28;20215;-85
2022/04/10 09:21:23;;;;;;;6.83;3.50;;;6.80;1.00;;;;;;5061592;28;20210;-84
2022/04/10 09:23:59;;;;;;;6.00;3.22;;;6.90;99.90;;;;;;5059177;28;20475;-84
2022/04/10 09:26:26;;;;;;;9.75;4.95;;;6.90;99.90;;;;;;5058018;28;20200;-84
2022/04/10 09:28:54;;;;;;;11.40;3.47;;;7.30;1.00;;;;;;5060409;28;20206;-85
2022/04/10 09:31:29;;;;;;;8.60;3.75;;;7.20;1.00;;;;;;5062003;28;20217;-86
2022/04/10 09:33:56;;;;;;;5.55;3.55;;;7.40;1.00;;;;;;5061701;28;20273;-83
2022/04/10 09:36:36;;;;;;;8.57;4.10;;;7.60;1.00;;;;;;5060864;28;20224;-84
2022/04/10 09:39:06;;;;;;;11.52;4.70;;;7.70;1.00;;;;;;5059631;28;20194;-85
2022/04/10 09:41:33;;;;;;;4.87;2.90;;;7.60;99.90;;;;;;5056226;28;20199;-85
2022/04/10 09:44:01;;;;;;;7.95;3.38;;;8.00;99.90;;;;;;5053555;28;20429;-85
2022/04/10 09:46:29;;;;;;;4.70;3.23;;;8.00;99.90;;;;;;5048734;28;20204;-85
2022/04/10 09:48:56;;;;;;;3.90;2.40;;;7.50;99.90;;;;;;5049953;28;20476;-85
2022/04/10 09:51:22;;;;;;;10.30;3.30;;;6.20;1.00;;;;;;5047141;28;20199;-86
2022/04/10 09:54:02;;;;;;;9.23;3.83;;;5.40;1.00;;;;;;5049847;28;20228;-86
2022/04/10 09:56:30;;;;;;;8.32;3.47;;;4.90;59.90;;;;;;5051228;28;20188;-86
2022/04/10 09:58:59;;;;;;;4.85;3.40;;;4.80;99.90;;;;;;5050463;28;20208;-86
2022/04/10 10:01:27;;;;;;;4.95;3.92;;;5.60;99.90;;;;;;5052656;28;20250;-85
2022/04/10 10:03:56;;;;;;;9.32;3.75;;;5.60;99.90;;;;;;5056666;28;20294;-85
2022/04/10 10:06:24;;;;;;;11.70;3.42;;;5.90;99.90;;;;;;5059715;28;20317;-85
2022/04/10 10:08:51;;;;;;;12.93;4.03;;;6.00;52.90;;;;;;5060859;28;20296;-85
2022/04/10 10:11:19;;;;;;;8.05;5.10;;;6.10;26.50;;;;;;5060518;28;20194;-85
2022/04/10 10:13:48;;;;;;;6.10;3.45;;;6.30;39.10;;;;;;5055167;28;20288;-85
2022/04/10 10:16:17;;;;;;;8.77;3.13;;;6.50;1.00;;;;;;5055880;28;20216;-85
2022/04/10 10:18:45;;;;;;;9.10;3.70;;;6.70;99.90;;;;;;5054437;28;20209;-85
2022/04/10 10:21:12;;;;;;;10.85;3.80;;;6.90;1.00;;;;;;5054552;28;20288;-85
2022/04/10 10:23:44;;;;;;;12.75;4.00;;;7.20;1.00;;;;;;5054299;28;20279;-84
2022/04/10 10:26:23;;;;;;;7.82;3.60;;;7.20;48.80;;;;;;5053672;28;20636;-85
2022/04/10 10:29:10;;;;;;;5.15;3.17;;;7.30;1.00;;;;;;5053759;28;20201;-83
2022/04/10 10:31:47;;;;;;;6.47;2.75;;;7.70;99.90;;;;;;5052802;28;20185;-85
2022/04/10 10:34:15;;;;;;;8.13;3.25;;;7.50;1.00;;;;;;5052301;28;20205;-84
2022/04/10 10:36:41;;;;;;;6.55;2.50;;;7.70;1.00;;;;;;5051599;28;20689;-86
2022/04/10 10:39:08;;;;;;;4.15;2.45;;;7.80;1.00;;;;;;5051472;28;20232;-85
2022/04/10 10:41:37;;;;;;;8.48;3.08;;;7.80;99.90;;;;;;5051396;28;20225;-85
2022/04/10 10:44:42;;;;;;;4.90;2.70;;;8.00;99.90;;;;;;5051075;28;20245;-85
2022/04/10 10:47:17;;;;;;;6.77;3.00;;;8.10;1.00;;;;;;5048311;28;20228;-85
2022/04/10 10:49:45;;;;;;;9.25;2.47;;;8.20;1.00;;;;;;5051066;28;20431;-85
2022/04/10 10:52:13;;;;;;;4.70;2.10;;;8.30;1.00;;;;;;5050418;28;20227;-84
2022/04/10 10:54:44;;;;;;;7.33;2.43;;;7.80;99.90;;;;;;5050056;28;20481;-84
2022/04/10 10:57:32;;;;;;;10.50;3.23;;;8.10;1.00;;;;;;5048459;28;20449;-85
2022/04/10 11:00:12;;;;;;;9.70;4.10;;;8.20;1.00;;;;;;5047881;28;20475;-85
2022/04/10 11:02:40;;;;;;;8.20;2.80;;;8.30;1.00;;;;;;5047409;28;20508;-84
2022/04/10 11:05:08;;;;;;;5.70;2.93;;;8.20;1.00;;;;;;5049207;28;20426;-84
2022/04/10 11:07:39;;;;;;;3.63;3.33;;;8.20;1.00;;;;;;5048269;28;20425;-84
2022/04/10 11:10:09;;;;;;;3.83;2.23;;;8.10;1.00;;;;;;5050410;28;20435;-84
2022/04/10 11:12:37;;;;;;;4.47;2.87;;;8.30;1.00;;;;;;5050378;28;20475;-85
2022/04/10 11:15:13;;;;;;;4.33;2.70;;;8.20;1.00;;;;;;5053067;28;20425;-85
2022/04/10 11:17:40;;;;;;;8.87;2.73;;;8.50;99.90;;;;;;5057002;28;20409;-85
2022/04/10 11:20:09;;;;;;;7.57;3.10;;;8.30;1.00;;;;;;5058659;28;20407;-86
2022/04/10 11:22:37;;;;;;;6.90;2.53;;;8.20;24.60;;;;;;5058839;28;20493;-84
2022/04/10 11:25:06;;;;;;;11.60;3.23;;;8.20;99.90;;;;;;5056863;28;20424;-84
2022/04/10 11:27:50;;;;;;;5.40;2.60;;;8.50;91.40;;;;;;5058291;28;20417;-84
2022/04/10 11:30:24;;;;;;;7.60;3.87;;;8.50;1.00;;;;;;5058084;28;20415;-85
2022/04/10 11:32:53;;;;;;;6.57;3.37;;;8.40;1.00;;;;;;5058510;28;20433;-84
2022/04/10 11:35:23;;;;;;;6.50;3.10;;;8.30;55.70;;;;;;5057945;28;20428;-85
2022/04/10 11:37:52;;;;;;;5.20;2.83;;;8.20;45.20;;;;;;5058588;28;20431;-85
2022/04/10 11:40:20;;;;;;;7.83;2.70;;;8.10;28.50;;;;;;5057535;28;20439;-84
2022/04/10 11:42:47;;;;;;;7.00;3.33;;;8.00;1.40;;;;;;5056971;28;20501;-85
2022/04/10 11:45:15;;;;;;;4.10;3.13;;;7.80;10.90;;;;;;5058577;28;20429;-84
2022/04/10 11:47:43;;;;;;;4.97;2.80;;;8.00;1.00;;;;;;5057930;28;20484;-85
2022/04/10 11:50:13;;;;;;;8.13;2.60;;;7.90;99.90;;;;;;5054235;28;20426;-85
2022/04/10 11:52:41;;;;;;;3.30;2.70;;;7.60;1.00;;;;;;5046624;28;20479;-87
2022/04/10 11:55:09;;;;;;;3.90;2.43;;;6.80;1.00;;;;;;5044441;28;20478;-85
2022/04/10 11:57:40;;;;;;;5.45;2.88;;;6.80;1.00;;;;;;5052127;28;20404;-86
2022/04/10 12:00:09;;;;;;;6.60;3.08;;;6.80;99.90;;;;;;5051738;28;20201;-85
2022/04/10 12:02:37;;;;;;;9.05;2.63;;;7.00;1.00;;;;;;5051254;28;20229;-85
2022/04/10 12:05:08;;;;;;;4.30;2.60;;;7.40;1.00;;;;;;5052540;28;20260;-85
2022/04/10 12:07:36;;;;;;;9.00;2.80;;;7.40;1.00;;;;;;5054533;28;20269;-85
2022/04/10 12:10:03;;;;;;;8.03;2.40;;;7.40;99.90;;;;;;5051988;28;20471;-86
2022/04/10 12:12:36;;;;;;;6.47;2.67;;;8.20;99.90;;;;;;5050380;28;20523;-86
2022/04/10 12:15:04;;;;;;;5.25;2.60;;;7.80;1.00;;;;;;5051515;28;20192;-87
2022/04/10 12:17:31;;;;;;;7.72;2.60;;;7.90;1.00;;;;;;5048612;28;20206;-85
2022/04/10 12:19:58;;;;;;;5.10;2.30;;;8.30;99.90;;;;;;5040694;28;20210;-85
2022/04/10 12:22:26;;;;;;;4.43;2.40;;;8.20;1.00;;;;;;5040747;28;20492;-84
2022/04/10 12:24:58;;;;;;;4.73;2.40;;;7.90;25.20;;;;;;5048701;28;20207;-85
2022/04/10 12:27:25;;;;;;;5.67;2.30;;;8.30;1.00;;;;;;5052484;28;20456;-85
2022/04/10 12:29:52;;;;;;;4.90;2.47;;;8.20;1.00;;;;;;5053358;28;20441;-85
2022/04/10 12:32:20;;;;;;;3.73;2.27;;;;;;;;;;5053736;28;20462;-85
2022/04/10 12:34:47;;;;;;;8.87;3.40;;;8.20;1.00;;;;;;5051066;28;20429;-85
2022/04/10 12:37:14;;;;;;;3.77;2.10;;;8.20;1.00;;;;;;5049615;28;20450;-85
2022/04/10 12:39:47;;;;;;;6.13;2.60;;;8.20;1.00;;;;;;5048764;28;20420;-85
2022/04/10 12:42:19;;;;;;;5.20;2.20;;;8.60;1.00;;;;;;5049583;28;20577;-85
2022/04/10 12:44:55;;;;;;;6.43;2.47;;;8.50;1.00;;;;;;5050684;28;20425;-84
2022/04/10 12:47:40;;;;;;;2.90;1.87;;;8.60;1.00;;;;;;5049116;28;20434;-86
2022/04/10 12:50:09;;;;;;;9.07;4.00;;;8.70;1.00;;;;;;5050227;28;20434;-85
2022/04/10 12:52:39;;;;;;;8.93;2.70;;;9.00;1.00;;;;;;5050126;28;20451;-86
2022/04/10 12:55:15;;;;;;;6.47;2.60;;;9.00;1.00;;;;;;5050492;28;20445;-83
2022/04/10 12:57:43;;;;;;;3.23;2.63;;;9.10;1.00;;;;;;5040691;28;20413;-85
2022/04/10 13:00:23;;;;;;;2.53;2.20;;;8.90;1.00;;;;;;5048400;28;20514;-85
2022/04/10 13:02:50;;;;;;;2.60;2.40;;;9.30;1.00;;;;;;5054580;28;20477;-84
2022/04/10 13:05:18;;;;;;;2.80;2.50;;;9.40;1.00;;;;;;5056263;28;20434;-84
2022/04/10 13:07:58;;;;;;;4.47;1.90;;;9.40;1.00;;;;;;5057653;28;20457;-85
2022/04/10 13:10:27;;;;;;;3.23;2.10;;;9.40;1.00;;;;;;5055324;28;20474;-85